ADDS METAR Data INFO
IDs: Format: Raw Decoded Include TAF

Data at: 1828 UTC 22 Nov 2017

METAR for:LFAQ (Albert/Picardie Arpt, --, FR)
Text:LFAQ 221800Z AUTO 17014KT CAVOK 10/05 Q1002 NOSIG
Temperature: 10.0°C ( 50°F)
Dewpoint: 5.0°C ( 41°F) [RH = 71%]
Pressure (altimeter):29.59 inches Hg (1002.0 mb)
Winds:from the S (170 degrees) at 16 MPH (14 knots; 7.2 m/s)
Visibility:6 or more sm (10+ km)
Ceiling:ceiling and visibility are OK
Clouds:unknown

TAF for:LFAQ (Albert/Picardie Arpt, --, FR) issued at 1400 UTC 22 Nov 2017
Text:TAF LFAQ 221400Z 2215/2224 19013KT CAVOK
Forecast period:1500 UTC 22 November 2017 to 0000 UTC 23 November 2017
Forecast type:FROM: standard forecast or significant change
Winds:from the S (190 degrees) at 15 MPH (13 knots; 6.7 m/s)
Visibility:6 or more sm (10+ km)
Clouds:missing
Weather:NSW (no significant weather)